Terminal Aerodrome Forecast
Issued by NWS

Home | Current Version | Previous Version | Graphics & Text | Print | Product List | Glossary On
Versions: 1 2 3 4 5 6 7 8 9 10 11 12
189
FTUS43 KMPX 231721
TAFRNH
TAF
KRNH 231721Z 2318/2418 29014G24KT P6SM SCT040 BKN060 BKN090
     FM231900 30015G24KT P6SM VCSH SCT040 BKN060
     FM240100 30008KT P6SM BKN090
     FM241600 29012G20KT P6SM FEW040 BKN110=

USA.gov is the U.S. government's official web portal to all federal, state and local government web resources and services.